Time;durP1;ratioP1;P1;durP2;ratioP2;P2;SDS_P1;SDS_P2;PMS_P1;PMS_P2;Temp;Humidity;BMP_temperature;BMP_pressure;BME280_temperature;BME280_humidity;BME280_pressure;Samples;Min_cycle;Max_cycle;Signal;HPM_P1;HPM_P2
2021/03/18 00:02:15;;;;;;;;;;;14.80;55.70;;;;;;4918275;29;19922;-57
2021/03/18 00:04:40;;;;;;;;;;;14.80;55.80;;;;;;4917957;29;19926;-56
2021/03/18 00:07:06;;;;;;;;;;;14.80;55.80;;;;;;4918128;29;19914;-56
2021/03/18 00:09:31;;;;;;;;;;;14.80;55.90;;;;;;4916911;29;20286;-56
2021/03/18 00:11:57;;;;;;;;;;;14.80;55.90;;;;;;4918185;29;19915;-57
2021/03/18 00:14:23;;;;;;;;;;;14.70;55.80;;;;;;4900855;29;20002;-57
2021/03/18 00:16:49;;;;;;;;;;;15.30;56.20;;;;;;4900770;29;20591;-56
2021/03/18 00:19:14;;;;;;;;;;;14.70;55.90;;;;;;4917854;29;19990;-56
2021/03/18 00:21:40;;;;;;;;;;;14.70;56.00;;;;;;4917589;29;19911;-58
2021/03/18 00:24:06;;;;;;;;;;;14.70;56.00;;;;;;4917563;29;20045;-56
2021/03/18 00:26:32;;;;;;;;;;;14.70;56.00;;;;;;4917666;29;19911;-56
2021/03/18 00:28:58;;;;;;;;;;;14.60;56.00;;;;;;4917399;29;19922;-56
2021/03/18 00:31:26;;;;;;;;;;;14.50;56.60;;;;;;4917358;29;19958;-56
2021/03/18 00:33:51;;;;;;;;;;;15.00;56.20;;;;;;4917599;29;19915;-57
2021/03/18 00:36:17;;;;;;;;;;;14.40;56.00;;;;;;4917251;29;19907;-57
2021/03/18 00:38:43;;;;;;;;;;;14.60;56.10;;;;;;4917504;29;19907;-57
2021/03/18 00:41:09;;;;;;;;;;;14.60;56.10;;;;;;4917121;29;19990;-56
2021/03/18 00:43:35;;;;;;;;;;;14.50;56.10;;;;;;4900002;29;19915;-57
2021/03/18 00:46:00;;;;;;;;;;;14.60;56.30;;;;;;4917392;29;19911;-56
2021/03/18 00:48:26;;;;;;;;;;;14.60;56.20;;;;;;4917022;29;19907;-57
2021/03/18 00:50:53;;;;;;;;;;;14.50;56.20;;;;;;4916981;29;20436;-56
2021/03/18 00:53:20;;;;;;;;;;;14.60;55.70;;;;;;4916912;29;19907;-56
2021/03/18 00:55:45;;;;;;;;;;;14.60;56.30;;;;;;4916990;29;19918;-57
2021/03/18 00:58:11;;;;;;;;;;;14.60;56.30;;;;;;4916937;29;19911;-57
2021/03/18 01:00:47;;;;;;;;;;;14.50;56.30;;;;;;4917144;29;20384;-57
2021/03/18 01:03:13;;;;;;;;;;;14.60;56.20;;;;;;4900018;29;19966;-57
2021/03/18 01:05:41;;;;;;;;;;;14.50;56.20;;;;;;4916780;29;19966;-57
2021/03/18 01:08:07;;;;;;;;;;;14.40;56.20;;;;;;4916953;29;20286;-56
2021/03/18 01:10:35;;;;;;;;;;;14.50;56.20;;;;;;4900016;29;19911;-56
2021/03/18 01:13:00;;;;;;;;;;;14.50;56.30;;;;;;4917019;29;20656;-57
2021/03/18 01:15:26;;;;;;;;;;;14.50;56.30;;;;;;4916684;29;19926;-57
2021/03/18 01:17:54;;;;;;;;;;;14.40;56.30;;;;;;4916917;29;20023;-57
2021/03/18 01:20:20;;;;;;;;;;;14.50;56.40;;;;;;4916394;29;19927;-54
2021/03/18 01:22:45;;;;;;;;;;;14.40;56.30;;;;;;4916474;29;19919;-57
2021/03/18 01:25:11;;;;;;;;;;;14.40;56.40;;;;;;4916851;29;19942;-56
2021/03/18 01:27:37;;;;;;;;;;;14.50;56.40;;;;;;4916713;29;19913;-56
2021/03/18 01:30:11;;;;;;;;;;;14.80;56.70;;;;;;4916477;29;20281;-56
2021/03/18 01:32:36;;;;;;;;;;;14.40;56.40;;;;;;4916693;29;20282;-57
2021/03/18 01:35:04;;;;;;;;;;;14.30;56.40;;;;;;4916427;29;19907;-57
2021/03/18 01:37:29;;;;;;;;;;;14.40;56.50;;;;;;4916500;29;19907;-54
2021/03/18 01:39:55;;;;;;;;;;;14.40;56.50;;;;;;4916788;29;20401;-57
2021/03/18 01:42:21;;;;;;;;;;;14.40;56.50;;;;;;4916689;29;19911;-56
2021/03/18 01:44:46;;;;;;;;;;;14.40;56.50;;;;;;4916185;29;19986;-56
2021/03/18 01:47:12;;;;;;;;;;;14.40;56.50;;;;;;4916610;29;19914;-56
2021/03/18 01:49:37;;;;;;;;;;;14.30;56.50;;;;;;4916292;29;19907;-56
2021/03/18 01:52:03;;;;;;;;;;;14.30;56.50;;;;;;4916231;29;19907;-56
2021/03/18 01:54:28;;;;;;;;;;;14.30;56.50;;;;;;4916556;29;19907;-62
2021/03/18 01:56:56;;;;;;;;;;;14.00;56.40;;;;;;4916314;29;19910;-62
2021/03/18 01:59:21;;;;;;;;;;;14.30;56.50;;;;;;4916313;29;20284;-62
2021/03/18 02:01:47;;;;;;;;;;;14.30;56.50;;;;;;4916127;29;19907;-62
2021/03/18 02:04:12;;;;;;;;;;;14.30;56.50;;;;;;4916369;29;19915;-62
2021/03/18 02:06:38;;;;;;;;;;;14.10;56.50;;;;;;4916034;29;19907;-62
2021/03/18 02:09:09;;;;;;;;;;;14.30;56.60;;;;;;4915992;29;20354;-62
2021/03/18 02:11:35;;;;;;;;;;;14.30;56.50;;;;;;4916042;29;19954;-62
2021/03/18 02:14:01;;;;;;;;;;;14.10;56.50;;;;;;4899783;29;20409;-62
2021/03/18 02:16:31;;;;;;;;;;;14.40;56.70;;;;;;4916262;29;19914;-62
2021/03/18 02:19:02;;;;;;;;;;;14.20;56.60;;;;;;4915812;29;19917;-62
2021/03/18 02:21:36;;;;;;;;;;;14.20;57.20;;;;;;4915774;29;20028;-62
2021/03/18 02:24:11;;;;;;;;;;;14.20;56.50;;;;;;4915766;29;20362;-62
2021/03/18 02:26:36;;;;;;;;;;;14.20;56.50;;;;;;4915852;29;19911;-62
2021/03/18 02:29:02;;;;;;;;;;;14.10;56.60;;;;;;4915848;29;19907;-62
2021/03/18 02:31:47;;;;;;;;;;;14.00;56.60;;;;;;4915784;29;19907;-62
2021/03/18 02:34:28;;;;;;;;;;;14.20;56.70;;;;;;4889862;29;19945;-62
2021/03/18 02:37:05;;;;;;;;;;;14.20;56.60;;;;;;4919572;29;20255;-62
2021/03/18 02:39:32;;;;;;;;;;;14.20;56.60;;;;;;4919474;29;19966;-62
2021/03/18 02:42:01;;;;;;;;;;;14.10;56.70;;;;;;4919435;29;19942;-63
2021/03/18 02:44:28;;;;;;;;;;;14.10;56.70;;;;;;4919129;29;19915;-62
2021/03/18 02:47:12;;;;;;;;;;;14.10;56.80;;;;;;4919569;29;20273;-62
2021/03/18 02:49:47;;;;;;;;;;;14.10;56.70;;;;;;4919297;29;19907;-62
2021/03/18 02:52:15;;;;;;;;;;;14.10;56.30;;;;;;4919149;29;19935;-62
2021/03/18 02:54:41;;;;;;;;;;;14.10;56.80;;;;;;4919121;29;19923;-62
2021/03/18 02:57:07;;;;;;;;;;;13.90;56.80;;;;;;4902162;29;19917;-62
2021/03/18 02:59:36;;;;;;;;;;;14.00;56.90;;;;;;4919434;29;19938;-62
2021/03/18 03:02:04;;;;;;;;;;;14.10;56.90;;;;;;4919377;29;20009;-62
2021/03/18 03:04:30;;;;;;;;;;;14.10;56.90;;;;;;4918978;29;19914;-62
2021/03/18 03:06:55;;;;;;;;;;;14.10;56.90;;;;;;4918911;29;20082;-62
2021/03/18 03:09:21;;;;;;;;;;;14.10;56.90;;;;;;4919090;29;19915;-62
2021/03/18 03:11:47;;;;;;;;;;;14.00;56.90;;;;;;4919131;29;19907;-62
2021/03/18 03:14:13;;;;;;;;;;;14.70;57.30;;;;;;4918776;29;19925;-62
2021/03/18 03:16:39;;;;;;;;;;;13.80;56.80;;;;;;4918817;29;19907;-62
2021/03/18 03:19:06;;;;;;;;;;;13.80;56.80;;;;;;4918811;29;19954;-62
2021/03/18 03:21:32;;;;;;;;;;;13.90;56.90;;;;;;4918958;29;19911;-62
2021/03/18 03:23:58;;;;;;;;;;;14.00;57.00;;;;;;4918641;29;20365;-62
2021/03/18 03:26:25;;;;;;;;;;;13.80;56.90;;;;;;4918616;29;20350;-62
2021/03/18 03:28:51;;;;;;;;;;;13.90;57.00;;;;;;4918620;29;20334;-62
2021/03/18 03:31:17;;;;;;;;;;;14.00;57.10;;;;;;4918601;29;19907;-62
2021/03/18 03:33:43;;;;;;;;;;;13.90;57.00;;;;;;4918566;29;19962;-62
2021/03/18 03:36:09;;;;;;;;;;;14.10;57.20;;;;;;4918727;29;19907;-62
2021/03/18 03:38:41;;;;;;;;;;;13.80;57.00;;;;;;4918675;29;19949;-62
2021/03/18 03:41:07;;;;;;;;;;;13.80;57.00;;;;;;4918293;29;20521;-62
2021/03/18 03:43:33;;;;;;;;;;;13.90;57.10;;;;;;4918131;29;19922;-63
2021/03/18 03:45:58;;;;;;;;;;;13.80;57.10;;;;;;4918516;29;19907;-62
2021/03/18 03:48:27;;;;;;;;;;;14.10;57.30;;;;;;4918418;29;19907;-62
2021/03/18 03:50:53;;;;;;;;;;;13.90;57.20;;;;;;4918437;29;19907;-62
2021/03/18 03:53:26;;;;;;;;;;;13.90;57.20;;;;;;4918467;29;19907;-62
2021/03/18 03:55:54;;;;;;;;;;;13.90;57.10;;;;;;4918308;29;19922;-62
2021/03/18 03:58:28;;;;;;;;;;;13.90;57.20;;;;;;4918360;29;19955;-62
2021/03/18 04:00:54;;;;;;;;;;;13.90;57.20;;;;;;4918052;29;19911;-62
2021/03/18 04:03:20;;;;;;;;;;;13.90;57.20;;;;;;4918244;29;19915;-62
2021/03/18 04:05:46;;;;;;;;;;;13.90;57.20;;;;;;4918104;29;20577;-62
2021/03/18 04:08:13;;;;;;;;;;;13.80;57.20;;;;;;4918176;29;19923;-62
2021/03/18 04:10:42;;;;;;;;;;;13.50;57.00;;;;;;4917903;29;19914;-62
2021/03/18 04:13:08;;;;;;;;;;;13.80;57.20;;;;;;4918199;29;19919;-62
2021/03/18 04:15:35;;;;;;;;;;;13.80;57.30;;;;;;4917764;29;20376;-62
2021/03/18 04:18:01;;;;;;;;;;;13.80;57.30;;;;;;4917746;29;20350;-62
2021/03/18 04:20:27;;;;;;;;;;;14.80;57.80;;;;;;4917956;29;19953;-62
2021/03/18 04:22:54;;;;;;;;;;;13.80;57.30;;;;;;4917649;29;19970;-62
2021/03/18 04:25:21;;;;;;;;;;;13.80;57.30;;;;;;4917634;29;19938;-62
2021/03/18 04:27:48;;;;;;;;;;;13.80;57.30;;;;;;4917579;29;19963;-62
2021/03/18 04:30:14;;;;;;;;;;;13.80;57.30;;;;;;4917850;29;19911;-62
2021/03/18 04:32:41;;;;;;;;;;;13.80;57.40;;;;;;4917890;29;19914;-62
2021/03/18 04:35:07;;;;;;;;;;;14.00;57.50;;;;;;4917782;29;19911;-62
2021/03/18 04:37:33;;;;;;;;;;;13.80;57.30;;;;;;4917382;29;19930;-62
2021/03/18 04:40:00;;;;;;;;;;;13.80;57.40;;;;;;4917484;29;19926;-62
2021/03/18 04:42:25;;;;;;;;;;;13.80;57.40;;;;;;4917418;29;19963;-61
2021/03/18 04:44:51;;;;;;;;;;;13.80;57.40;;;;;;4917407;29;19970;-62
2021/03/18 04:47:18;;;;;;;;;;;13.80;57.50;;;;;;4917550;29;19994;-62
2021/03/18 04:49:45;;;;;;;;;;;14.30;57.70;;;;;;4917380;29;20012;-62
2021/03/18 04:52:14;;;;;;;;;;;13.70;57.40;;;;;;4917137;29;19907;-62
2021/03/18 04:54:40;;;;;;;;;;;13.70;57.30;;;;;;4899622;29;19907;-62
2021/03/18 04:57:06;;;;;;;;;;;13.70;57.40;;;;;;4917316;29;20364;-62
2021/03/18 04:59:32;;;;;;;;;;;13.70;57.40;;;;;;4917347;29;19915;-62
2021/03/18 05:01:57;;;;;;;;;;;13.70;57.50;;;;;;4917187;29;19930;-62
2021/03/18 05:04:32;;;;;;;;;;;13.70;57.50;;;;;;4917073;29;19923;-62
2021/03/18 05:06:58;;;;;;;;;;;13.60;57.40;;;;;;4916890;29;20358;-62
2021/03/18 05:09:23;;;;;;;;;;;13.70;57.50;;;;;;4916800;29;19914;-62
2021/03/18 05:11:50;;;;;;;;;;;13.70;57.50;;;;;;4916762;29;19914;-62
2021/03/18 05:14:23;;;;;;;;;;;13.60;57.50;;;;;;4900679;29;19919;-62
2021/03/18 05:16:49;;;;;;;;;;;13.70;57.50;;;;;;4916623;29;20070;-62
2021/03/18 05:19:15;;;;;;;;;;;13.40;57.40;;;;;;4899625;29;19911;-62
2021/03/18 05:21:42;;;;;;;;;;;13.60;57.50;;;;;;4916828;29;19911;-62
2021/03/18 05:24:09;;;;;;;;;;;13.70;57.50;;;;;;4916757;29;19915;-61
2021/03/18 05:26:35;;;;;;;;;;;13.70;57.60;;;;;;4916762;29;19958;-62
2021/03/18 05:29:00;;;;;;;;;;;13.40;57.40;;;;;;4916523;29;19911;-62
2021/03/18 05:31:26;;;;;;;;;;;13.40;57.40;;;;;;4916616;29;19958;-62
2021/03/18 05:33:51;;;;;;;;;;;13.60;57.50;;;;;;4916351;29;19915;-62
2021/03/18 05:36:17;;;;;;;;;;;13.60;57.60;;;;;;4916331;29;19907;-62
2021/03/18 05:38:43;;;;;;;;;;;13.40;57.50;;;;;;4916644;29;20336;-62
2021/03/18 05:41:09;;;;;;;;;;;13.40;57.50;;;;;;4916390;29;19954;-62
2021/03/18 05:43:34;;;;;;;;;;;13.60;57.60;;;;;;4916258;29;19917;-62
2021/03/18 05:46:01;;;;;;;;;;;13.40;57.60;;;;;;4916331;29;19931;-62
2021/03/18 05:48:27;;;;;;;;;;;13.60;57.70;;;;;;4916299;29;19980;-62
2021/03/18 05:50:52;;;;;;;;;;;13.40;57.60;;;;;;4916374;29;19950;-62
2021/03/18 05:53:18;;;;;;;;;;;13.60;57.80;;;;;;4916424;29;19911;-62
2021/03/18 05:55:45;;;;;;;;;;;13.60;57.90;;;;;;4916460;29;19998;-62
2021/03/18 05:58:11;;;;;;;;;;;13.20;57.70;;;;;;4916253;29;19934;-62
2021/03/18 06:00:37;;;;;;;;;;;13.60;58.00;;;;;;4916243;29;19965;-62
2021/03/18 06:03:02;;;;;;;;;;;13.60;58.00;;;;;;4916369;29;19911;-62
2021/03/18 06:05:28;;;;;;;;;;;13.60;58.20;;;;;;4916464;29;20306;-62
2021/03/18 06:07:54;;;;;;;;;;;13.70;58.50;;;;;;4918326;29;19911;-62
2021/03/18 06:10:21;;;;;;;;;;;13.60;58.40;;;;;;4920300;29;19942;-62
2021/03/18 06:12:50;;;;;;;;;;;13.60;58.40;;;;;;4920486;29;19919;-62
2021/03/18 06:15:17;;;;;;;;;;;13.70;58.30;;;;;;4920199;29;19911;-62
2021/03/18 06:17:42;;;;;;;;;;;13.70;58.20;;;;;;4920151;29;19918;-62
2021/03/18 06:20:11;;;;;;;;;;;13.80;58.20;;;;;;4920052;29;20273;-62
2021/03/18 06:22:43;;;;;;;;;;;13.90;58.10;;;;;;4919716;29;19911;-62
2021/03/18 06:25:29;;;;;;;;;;;13.90;57.80;;;;;;4919738;29;19911;-62
2021/03/18 06:28:13;;;;;;;;;;;14.00;57.80;;;;;;4919711;29;19962;-62
2021/03/18 06:30:39;;;;;;;;;;;14.10;57.70;;;;;;4919686;29;19911;-62
2021/03/18 06:33:24;;;;;;;;;;;14.00;57.40;;;;;;4919626;29;19954;-62
2021/03/18 06:35:50;;;;;;;;;;;14.20;57.30;;;;;;4919845;29;20338;-62
2021/03/18 06:38:15;;;;;;;;;;;14.30;57.30;;;;;;4919361;29;19957;-62
2021/03/18 06:40:45;;;;;;;;;;;14.30;57.10;;;;;;4919297;29;20487;-62
2021/03/18 06:43:11;;;;;;;;;;;14.50;57.20;;;;;;4919612;29;20013;-62
2021/03/18 06:45:38;;;;;;;;;;;14.40;57.00;;;;;;4919389;29;19957;-63
2021/03/18 06:48:05;;;;;;;;;;;15.00;57.20;;;;;;4919617;29;20006;-62
2021/03/18 06:50:35;;;;;;;;;;;14.40;56.80;;;;;;4919211;29;19942;-62
2021/03/18 06:53:00;;;;;;;;;;;14.30;56.60;;;;;;4919049;29;19907;-62
2021/03/18 06:55:27;;;;;;;;;;;14.30;56.50;;;;;;4919449;29;19911;-62
2021/03/18 06:58:12;;;;;;;;;;;14.40;56.40;;;;;;4919092;29;19954;-61
2021/03/18 07:00:37;;;;;;;;;;;14.70;56.40;;;;;;4919183;29;19974;-61
2021/03/18 07:03:03;;;;;;;;;;;14.60;56.30;;;;;;4918970;29;19954;-62
2021/03/18 07:05:36;;;;;;;;;;;14.80;56.40;;;;;;4919228;29;20358;-63
2021/03/18 07:08:02;;;;;;;;;;;14.80;56.80;;;;;;4918976;29;19915;-62
2021/03/18 07:10:31;;;;;;;;;;;14.80;56.80;;;;;;4918543;29;19907;-62
2021/03/18 07:13:13;;;;;;;;;;;14.70;56.80;;;;;;4919622;29;19911;-62
2021/03/18 07:15:38;;;;;;;;;;;14.70;56.80;;;;;;4918884;29;20392;-62
2021/03/18 07:18:04;;;;;;;;;;;14.90;56.40;;;;;;4918190;29;19907;-62
2021/03/18 07:20:29;;;;;;;;;;;15.10;56.10;;;;;;4918805;29;19990;-62
2021/03/18 07:22:56;;;;;;;;;;;15.10;56.40;;;;;;4918633;29;19990;-62
2021/03/18 07:25:26;;;;;;;;;;;15.10;55.60;;;;;;4918981;29;19977;-62
2021/03/18 07:27:53;;;;;;;;;;;15.30;55.30;;;;;;4918683;29;20441;-62
2021/03/18 07:30:29;;;;;;;;;;;15.50;55.00;;;;;;4918924;29;19911;-62
2021/03/18 07:32:55;;;;;;;;;;;15.60;54.80;;;;;;4918546;29;19994;-62
2021/03/18 07:35:22;;;;;;;;;;;15.70;54.80;;;;;;4918800;29;20318;-61
2021/03/18 07:37:47;;;;;;;;;;;15.70;54.80;;;;;;4918730;29;20025;-62
2021/03/18 07:40:13;;;;;;;;;;;15.60;54.70;;;;;;4918808;29;19942;-62
2021/03/18 07:42:39;;;;;;;;;;;15.80;54.80;;;;;;4918631;29;19907;-61
2021/03/18 07:45:05;;;;;;;;;;;15.80;54.80;;;;;;4918671;29;20388;-62
2021/03/18 07:47:31;;;;;;;;;;;15.90;54.80;;;;;;4917928;29;19911;-61
2021/03/18 07:49:57;;;;;;;;;;;15.90;54.70;;;;;;4918122;29;19911;-61
2021/03/18 07:52:27;;;;;;;;;;;15.90;54.70;;;;;;4916946;29;20002;-61
2021/03/18 07:54:55;;;;;;;;;;;15.90;54.70;;;;;;4917650;29;19913;-61
2021/03/18 07:57:21;;;;;;;;;;;15.80;54.70;;;;;;4917877;29;20013;-62
2021/03/18 07:59:47;;;;;;;;;;;15.90;54.90;;;;;;4918060;29;19907;-61
2021/03/18 08:02:19;;;;;;;;;;;16.00;55.10;;;;;;4918083;29;20001;-62
2021/03/18 08:04:52;;;;;;;;;;;15.90;55.00;;;;;;4917900;29;19915;-62
2021/03/18 08:07:36;;;;;;;;;;;15.90;55.20;;;;;;4917589;29;19918;-61
2021/03/18 08:10:03;;;;;;;;;;;15.90;55.20;;;;;;4917965;29;19911;-61
2021/03/18 08:12:40;;;;;;;;;;;15.90;55.30;;;;;;4918188;29;19998;-61
2021/03/18 08:15:26;;;;;;;;;;;15.90;55.20;;;;;;4918172;29;19924;-61
2021/03/18 08:17:53;;;;;;;;;;;16.60;55.70;;;;;;4904497;29;20736;-61
2021/03/18 08:20:37;;;;;;;;;;;15.90;55.40;;;;;;4918098;29;19934;-62
2021/03/18 08:23:25;;;;;;;;;;;16.00;55.30;;;;;;4917294;29;20475;-62
2021/03/18 08:26:03;;;;;;;;;;;15.90;55.30;;;;;;4916420;29;20310;-62
2021/03/18 08:28:47;;;;;;;;;;;15.90;55.40;;;;;;4915672;29;19935;-61
2021/03/18 08:31:14;;;;;;;;;;;15.90;56.10;;;;;;4914864;29;19986;-61
2021/03/18 08:33:44;;;;;;;;;;;15.90;55.90;;;;;;4915905;29;19947;-61
2021/03/18 08:36:27;;;;;;;;;;;15.80;55.60;;;;;;4915887;29;19907;-61
2021/03/18 08:38:55;;;;;;;;;;;15.90;55.60;;;;;;4916025;29;19922;-61
2021/03/18 08:41:44;;;;;;;;;;;15.90;55.70;;;;;;4900332;29;20286;-61
2021/03/18 08:44:12;;;;;;;;;;;15.90;55.70;;;;;;4907539;29;19970;-61
2021/03/18 08:46:42;;;;;;;;;;;15.80;55.80;;;;;;4917585;29;20255;-62
2021/03/18 08:49:21;;;;;;;;;;;15.80;55.90;;;;;;4917361;29;19911;-61
2021/03/18 08:51:49;;;;;;;;;;;15.80;55.90;;;;;;4917289;29;19950;-61
2021/03/18 08:54:33;;;;;;;;;;;15.80;56.00;;;;;;4917242;29;20334;-61
2021/03/18 08:56:58;;;;;;;;;;;15.80;56.00;;;;;;4917325;29;19934;-62
2021/03/18 08:59:24;;;;;;;;;;;15.70;56.00;;;;;;4917007;29;20389;-62
2021/03/18 09:01:49;;;;;;;;;;;15.90;56.00;;;;;;4917229;29;19971;-61
2021/03/18 09:04:15;;;;;;;;;;;15.90;56.00;;;;;;4916896;29;19958;-61
2021/03/18 09:06:46;;;;;;;;;;;15.90;56.00;;;;;;4917256;29;20274;-61
2021/03/18 09:09:18;;;;;;;;;;;15.90;55.90;;;;;;4917198;29;19911;-61
2021/03/18 09:11:44;;;;;;;;;;;15.90;55.80;;;;;;4917236;29;20265;-61
2021/03/18 09:14:14;;;;;;;;;;;15.90;55.90;;;;;;4917315;29;19919;-61
2021/03/18 09:16:41;;;;;;;;;;;15.80;55.80;;;;;;4917216;29;19955;-61
2021/03/18 09:19:06;;;;;;;;;;;16.00;55.90;;;;;;4916887;29;19907;-61
2021/03/18 09:21:39;;;;;;;;;;;15.90;55.80;;;;;;4916785;29;19911;-61
2021/03/18 09:24:05;;;;;;;;;;;16.00;55.80;;;;;;4916759;29;19923;-61
2021/03/18 09:26:31;;;;;;;;;;;15.90;55.90;;;;;;4916995;29;19954;-61
2021/03/18 09:28:58;;;;;;;;;;;15.60;55.90;;;;;;4916685;29;19907;-61
2021/03/18 09:31:24;;;;;;;;;;;15.80;56.10;;;;;;4916831;29;19907;-62
2021/03/18 09:33:52;;;;;;;;;;;15.80;56.20;;;;;;4916445;29;19930;-61
2021/03/18 09:36:20;;;;;;;;;;;15.70;56.30;;;;;;4916458;29;19918;-61
2021/03/18 09:38:59;;;;;;;;;;;15.70;56.40;;;;;;4916722;29;19970;-62
2021/03/18 09:41:26;;;;;;;;;;;15.60;57.10;;;;;;4916555;29;19914;-61
2021/03/18 09:44:09;;;;;;;;;;;15.60;56.60;;;;;;4899205;29;19919;-61
2021/03/18 09:46:36;;;;;;;;;;;15.60;56.60;;;;;;4915772;29;20002;-62
2021/03/18 09:49:02;;;;;;;;;;;15.50;56.70;;;;;;4916084;29;19911;-61
2021/03/18 09:51:27;;;;;;;;;;;15.50;56.30;;;;;;4915126;29;20301;-61
2021/03/18 09:54:00;;;;;;;;;;;15.80;57.10;;;;;;4915622;29;19914;-61
2021/03/18 09:56:26;;;;;;;;;;;15.40;56.80;;;;;;4916448;29;19907;-60
2021/03/18 09:58:53;;;;;;;;;;;15.40;57.10;;;;;;4916683;29;20039;-61
2021/03/18 10:01:20;;;;;;;;;;;15.50;57.00;;;;;;4916007;29;19907;-61
2021/03/18 10:04:00;;;;;;;;;;;15.90;57.10;;;;;;4916161;29;19915;-61
2021/03/18 10:06:31;;;;;;;;;;;15.50;56.80;;;;;;4916100;29;19993;-61
2021/03/18 10:09:14;;;;;;;;;;;15.60;56.70;;;;;;4916026;29;20322;-61
2021/03/18 10:11:41;;;;;;;;;;;15.60;56.50;;;;;;4916031;29;19907;-60
2021/03/18 10:14:07;;;;;;;;;;;15.60;56.40;;;;;;4916334;29;19922;-61
2021/03/18 10:16:33;;;;;;;;;;;15.60;56.50;;;;;;4916078;29;20393;-62
2021/03/18 10:18:59;;;;;;;;;;;15.70;56.50;;;;;;4916190;29;19907;-61
2021/03/18 10:21:24;;;;;;;;;;;15.60;56.40;;;;;;4916087;29;19907;-61
2021/03/18 10:23:50;;;;;;;;;;;15.70;56.40;;;;;;4915883;29;19915;-61
2021/03/18 10:26:25;;;;;;;;;;;15.60;56.40;;;;;;4916143;29;19907;-61
2021/03/18 10:29:00;;;;;;;;;;;15.70;56.40;;;;;;4915994;29;19939;-61
2021/03/18 10:31:26;;;;;;;;;;;15.70;56.40;;;;;;4915859;29;19914;-61
2021/03/18 10:33:52;;;;;;;;;;;15.70;56.40;;;;;;4898696;29;20330;-61
2021/03/18 10:36:31;;;;;;;;;;;15.70;56.40;;;;;;4915435;29;19918;-61
2021/03/18 10:38:58;;;;;;;;;;;15.70;56.30;;;;;;4915759;29;19908;-61
2021/03/18 10:41:23;;;;;;;;;;;15.70;56.20;;;;;;4915528;29;19907;-61
2021/03/18 10:43:49;;;;;;;;;;;15.80;56.20;;;;;;4915907;29;19915;-61
2021/03/18 10:46:16;;;;;;;;;;;15.70;56.20;;;;;;4915936;29;20352;-62
2021/03/18 10:48:45;;;;;;;;;;;15.70;56.10;;;;;;4915841;29;19967;-61
2021/03/18 10:51:15;;;;;;;;;;;16.00;56.40;;;;;;4903207;29;20026;-61
2021/03/18 10:53:42;;;;;;;;;;;15.70;56.30;;;;;;4898502;29;19914;-61
2021/03/18 10:56:12;;;;;;;;;;;15.60;56.30;;;;;;4883623;29;19964;-61
2021/03/18 10:58:38;;;;;;;;;;;15.60;56.40;;;;;;4900037;29;20042;-62
2021/03/18 11:01:05;;;;;;;;;;;15.90;56.50;;;;;;4900178;29;19907;-62
2021/03/18 11:03:32;;;;;;;;;;;16.20;56.50;;;;;;4901334;29;19911;-62
2021/03/18 11:05:58;;;;;;;;;;;15.60;56.30;;;;;;4918897;29;20289;-62
2021/03/18 11:08:28;;;;;;;;;;;15.70;56.30;;;;;;4917998;29;19984;-62
2021/03/18 11:10:54;;;;;;;;;;;15.70;56.10;;;;;;4918781;29;19918;-62
2021/03/18 11:13:21;;;;;;;;;;;15.70;56.10;;;;;;4919219;29;19911;-62
2021/03/18 11:15:46;;;;;;;;;;;15.70;56.10;;;;;;4901294;29;19911;-62
2021/03/18 11:18:12;;;;;;;;;;;16.30;56.50;;;;;;4919114;29;19918;-62
2021/03/18 11:20:39;;;;;;;;;;;15.60;56.10;;;;;;4918948;29;19911;-62
2021/03/18 11:23:05;;;;;;;;;;;15.70;56.20;;;;;;4918658;29;19907;-62
2021/03/18 11:25:31;;;;;;;;;;;15.60;56.10;;;;;;4918662;29;19911;-62
2021/03/18 11:27:57;;;;;;;;;;;16.20;56.50;;;;;;4918375;29;20349;-63
2021/03/18 11:30:26;;;;;;;;;;;15.60;56.20;;;;;;4918861;29;19938;-62
2021/03/18 11:33:10;;;;;;;;;;;15.70;56.20;;;;;;4918479;29;19959;-62
2021/03/18 11:35:36;;;;;;;;;;;15.60;56.20;;;;;;4918538;29;19908;-61
2021/03/18 11:38:02;;;;;;;;;;;15.60;56.30;;;;;;4918710;29;19917;-62
2021/03/18 11:40:27;;;;;;;;;;;15.60;56.40;;;;;;4918711;29;19911;-62
2021/03/18 11:42:53;;;;;;;;;;;15.50;56.30;;;;;;4918271;29;20370;-62
2021/03/18 11:45:18;;;;;;;;;;;15.50;56.30;;;;;;4918674;29;19959;-62
2021/03/18 11:47:44;;;;;;;;;;;15.60;56.40;;;;;;4918385;29;19913;-62
2021/03/18 11:50:09;;;;;;;;;;;15.50;56.40;;;;;;4918469;29;19907;-62
2021/03/18 11:52:35;;;;;;;;;;;15.50;56.40;;;;;;4918502;29;19907;-61
2021/03/18 11:55:01;;;;;;;;;;;15.50;56.40;;;;;;4918198;29;19907;-62
2021/03/18 11:57:26;;;;;;;;;;;15.50;56.40;;;;;;4918206;29;19907;-62
2021/03/18 11:59:52;;;;;;;;;;;15.50;56.80;;;;;;4917516;29;19911;-62
2021/03/18 12:02:17;;;;;;;;;;;15.30;57.50;;;;;;4918120;29;19911;-62
2021/03/18 12:04:42;;;;;;;;;;;15.50;57.00;;;;;;4918050;29;20404;-62
2021/03/18 12:07:08;;;;;;;;;;;15.60;56.80;;;;;;4917895;29;19907;-62
2021/03/18 12:09:33;;;;;;;;;;;15.60;56.70;;;;;;4918548;29;19915;-62
2021/03/18 12:11:59;;;;;;;;;;;15.50;56.60;;;;;;4918124;29;19907;-61
2021/03/18 12:14:25;;;;;;;;;;;15.70;56.50;;;;;;4918068;29;19926;-61
2021/03/18 12:16:50;;;;;;;;;;;15.70;56.40;;;;;;4917826;29;19907;-61
2021/03/18 12:19:16;;;;;;;;;;;15.80;56.40;;;;;;4917674;29;19934;-62
2021/03/18 12:21:41;;;;;;;;;;;15.80;56.50;;;;;;4917694;29;19911;-62
2021/03/18 12:24:07;;;;;;;;;;;15.80;56.20;;;;;;4917450;29;20396;-62
2021/03/18 12:26:32;;;;;;;;;;;15.90;56.30;;;;;;4917676;29;19911;-62
2021/03/18 12:28:58;;;;;;;;;;;16.00;56.40;;;;;;4917724;29;19911;-62
2021/03/18 12:31:23;;;;;;;;;;;16.00;56.30;;;;;;4917592;29;19907;-61
2021/03/18 12:33:49;;;;;;;;;;;16.00;55.90;;;;;;4917367;29;20032;-62
2021/03/18 12:36:14;;;;;;;;;;;15.90;56.00;;;;;;4917331;29;19907;-62
2021/03/18 12:38:40;;;;;;;;;;;16.10;56.40;;;;;;4917479;29;20148;-63
2021/03/18 12:41:05;;;;;;;;;;;16.70;56.40;;;;;;4917387;29;19930;-62
2021/03/18 12:43:37;;;;;;;;;;;16.10;55.70;;;;;;4917309;29;19969;-61
2021/03/18 12:46:03;;;;;;;;;;;16.30;55.80;;;;;;4917375;29;19915;-62
2021/03/18 12:48:28;;;;;;;;;;;16.30;56.10;;;;;;4917470;29;19907;-61
2021/03/18 12:50:54;;;;;;;;;;;16.40;56.10;;;;;;4917284;29;19911;-61
2021/03/18 12:53:19;;;;;;;;;;;16.40;55.90;;;;;;4917330;29;20005;-62
2021/03/18 12:55:48;;;;;;;;;;;16.40;55.80;;;;;;4917055;29;19958;-62
2021/03/18 12:58:14;;;;;;;;;;;16.40;56.50;;;;;;4917041;29;19908;-62
2021/03/18 13:00:40;;;;;;;;;;;16.20;55.90;;;;;;4917034;29;20430;-61
2021/03/18 13:03:06;;;;;;;;;;;16.10;55.90;;;;;;4917080;29;19907;-62
2021/03/18 13:05:31;;;;;;;;;;;16.30;56.20;;;;;;4916876;29;19921;-62
2021/03/18 13:07:57;;;;;;;;;;;16.30;56.40;;;;;;4917214;29;19907;-61
2021/03/18 13:10:22;;;;;;;;;;;16.10;56.20;;;;;;4916983;29;19982;-63
2021/03/18 13:12:48;;;;;;;;;;;16.30;56.00;;;;;;4917177;29;20007;-62
2021/03/18 13:15:14;;;;;;;;;;;16.40;55.80;;;;;;4916438;29;19975;-62
2021/03/18 13:17:40;;;;;;;;;;;16.60;55.80;;;;;;4899745;29;19914;-62
2021/03/18 13:20:07;;;;;;;;;;;16.70;55.70;;;;;;4917275;29;19907;-62
2021/03/18 13:22:33;;;;;;;;;;;16.80;55.30;;;;;;4916974;29;20349;-61
2021/03/18 13:24:58;;;;;;;;;;;17.00;55.10;;;;;;4916713;29;19919;-62
2021/03/18 13:27:24;;;;;;;;;;;17.00;55.10;;;;;;4917006;29;19907;-62
2021/03/18 13:29:49;;;;;;;;;;;16.90;54.90;;;;;;4916805;29;19907;-62
2021/03/18 13:32:15;;;;;;;;;;;17.20;54.60;;;;;;4916656;29;19907;-62
2021/03/18 13:34:40;;;;;;;;;;;17.10;54.30;;;;;;4916548;29;19907;-61
2021/03/18 13:37:06;;;;;;;;;;;17.30;54.20;;;;;;4899419;29;19907;-61
2021/03/18 13:39:31;;;;;;;;;;;17.30;54.20;;;;;;4916941;29;19947;-61
2021/03/18 13:41:57;;;;;;;;;;;17.30;54.00;;;;;;4899339;29;19914;-61
2021/03/18 13:44:22;;;;;;;;;;;17.20;53.80;;;;;;4916531;29;19961;-61
2021/03/18 13:46:48;;;;;;;;;;;17.30;54.00;;;;;;4916262;29;19911;-61
2021/03/18 13:49:13;;;;;;;;;;;17.30;54.00;;;;;;4916424;29;19907;-61
2021/03/18 13:51:39;;;;;;;;;;;17.30;54.00;;;;;;4916443;29;19907;-61
2021/03/18 13:54:04;;;;;;;;;;;17.20;54.70;;;;;;4916314;29;19907;-60
2021/03/18 13:56:30;;;;;;;;;;;17.30;54.10;;;;;;4909012;29;19913;-61
2021/03/18 13:58:55;;;;;;;;;;;17.10;54.00;;;;;;4896978;29;19943;-62
2021/03/18 14:01:21;;;;;;;;;;;17.70;54.40;;;;;;4897372;29;19936;-60
2021/03/18 14:03:46;;;;;;;;;;;16.90;54.00;;;;;;4897318;29;20301;-60
2021/03/18 14:06:12;;;;;;;;;;;16.90;54.00;;;;;;4897552;29;19914;-60
2021/03/18 14:08:37;;;;;;;;;;;17.00;54.10;;;;;;4897228;29;19930;-60
2021/03/18 14:11:03;;;;;;;;;;;16.90;54.00;;;;;;4895896;29;19934;-60
2021/03/18 14:13:29;;;;;;;;;;;17.00;54.10;;;;;;4897981;29;20393;-60
2021/03/18 14:15:55;;;;;;;;;;;17.00;54.10;;;;;;4897206;29;19998;-60
2021/03/18 14:18:21;;;;;;;;;;;17.00;54.80;;;;;;4897295;29;19914;-60
2021/03/18 14:20:54;;;;;;;;;;;16.90;54.10;;;;;;4896923;29;19907;-60